< Cyclone 199506 1997 Season Cyclone 199702 >
Cyclone 199701 (LINDSAY)
General InformationDetailed Track InformationTrack Information on Google MapsList of All Images || ResourceGoogle EarthGE AnimationAtom FeedGeoJSON
Detalied Best Track Wind (Time Zone = UTC)
Year Month Day Hour Lat. Long. Wind (kt) Gust (kt) Direc. of Major Storm Axis Radius of Major Storm Axis (nm) Radius of Minor Storm Axis (nm) Direc. of Major Gale Axis Radius of Major Gale Axis (nm) Radius of Minor Gale Axis (nm) Image
1996 7 9 10 -9.2 93.3 21 -1 symmetric - - symmetric - - Image
1996 7 9 12 -9.6 93.0 21 -1 symmetric - - symmetric - - Image
1996 7 9 15 -9.9 92.8 23 -1 symmetric - - symmetric - - Image
1996 7 9 18 -10.2 92.6 23 -1 symmetric - - symmetric - - Image
1996 7 9 21 -10.6 92.5 27 -1 symmetric - - symmetric - - Image
1996 7 10 00 -11.0 92.4 27 -1 symmetric - - symmetric - - Image
1996 7 10 03 -11.3 92.3 29 -1 symmetric - - symmetric - - Image
1996 7 10 06 -11.6 92.2 29 -1 symmetric - - symmetric - - Image
1996 7 10 09 -11.9 92.1 35 -1 symmetric - - symmetric - - Image
1996 7 10 12 -12.1 92.0 41 -1 symmetric - - symmetric - - Image
1996 7 10 15 -12.2 92.0 41 -1 symmetric - - symmetric - - Image
1996 7 10 18 -12.2 92.0 41 -1 symmetric - - symmetric - - Image
1996 7 10 21 -12.2 92.0 41 -1 symmetric - - symmetric - - Image
1996 7 11 00 -12.2 92.0 41 -1 symmetric - - symmetric - - Image
1996 7 11 03 -12.2 92.1 39 -1 symmetric - - symmetric - - Image
1996 7 11 06 -12.3 92.2 35 -1 symmetric - - symmetric - - Image
1996 7 11 09 -12.3 92.3 33 -1 symmetric - - symmetric - - Image
1996 7 11 12 -12.4 92.4 29 -1 symmetric - - symmetric - - Image
1996 7 11 15 -12.4 92.5 29 -1 symmetric - - symmetric - - Image
1996 7 11 18 -12.5 92.6 29 -1 symmetric - - symmetric - - Image
1996 7 11 21 -12.6 92.7 29 -1 symmetric - - symmetric - - Image
1996 7 12 00 -12.8 92.9 29 -1 symmetric - - symmetric - - Image
1996 7 12 03 -13.1 93.2 29 -1 symmetric - - symmetric - - Image
1996 7 12 06 -13.4 93.5 29 -1 symmetric - - symmetric - - Image
1996 7 12 09 -13.7 93.8 29 -1 symmetric - - symmetric - - Image
1996 7 12 12 -14.0 94.1 29 -1 symmetric - - symmetric - - Image
1996 7 12 15 -14.3 94.4 29 -1 symmetric - - symmetric - - Image
1996 7 12 18 -14.6 94.7 29 -1 symmetric - - symmetric - - Image
1996 7 12 21 -14.9 95.0 29 -1 symmetric - - symmetric - - Image
1996 7 13 00 -15.2 95.3 27 -1 symmetric - - symmetric - - Image
< Cyclone 199506 1997 Season Cyclone 199702 >

Help